Time;durP1;ratioP1;P1;durP2;ratioP2;P2;SDS_P1;SDS_P2;PMS_P1;PMS_P2;Temp;Humidity;BMP_temperature;BMP_pressure;BME280_temperature;BME280_humidity;BME280_pressure;Samples;Min_cycle;Max_cycle;Signal;HPM_P1;HPM_P2
2021/06/17 00:00:10;;;;;;;1.40;1.00;;;30.00;45.60;;;;;;5056110;28;20049;-61
2021/06/17 00:02:36;;;;;;;1.45;1.10;;;30.00;45.70;;;;;;5050187;28;20104;-61
2021/06/17 00:05:03;;;;;;;1.75;1.08;;;30.00;45.70;;;;;;5064183;28;20479;-61
2021/06/17 00:07:29;;;;;;;1.15;0.90;;;29.90;45.70;;;;;;5064431;28;20027;-61
2021/06/17 00:09:54;;;;;;;2.22;1.20;;;29.90;45.70;;;;;;5060113;28;20425;-61
2021/06/17 00:12:20;;;;;;;1.40;1.15;;;29.90;45.80;;;;;;5067462;28;20033;-61
2021/06/17 00:14:45;;;;;;;1.33;1.00;;;29.80;45.70;;;;;;5054431;28;20116;-61
2021/06/17 00:17:11;;;;;;;1.17;0.90;;;29.80;45.70;;;;;;5066621;28;20439;-61
2021/06/17 00:19:37;;;;;;;2.03;1.30;;;29.80;45.80;;;;;;5060846;28;20020;-61
2021/06/17 00:22:03;;;;;;;1.70;1.10;;;29.80;45.80;;;;;;5057461;28;20032;-62
2021/06/17 00:24:29;;;;;;;1.42;1.00;;;29.70;45.80;;;;;;5063005;28;20042;-60
2021/06/17 00:26:55;;;;;;;1.33;0.95;;;29.70;45.80;;;;;;5053366;28;20029;-61
2021/06/17 00:29:22;;;;;;;1.65;1.02;;;29.70;45.80;;;;;;5047320;28;20037;-60
2021/06/17 00:31:48;;;;;;;1.30;1.00;;;29.70;45.90;;;;;;5045918;28;20060;-61
2021/06/17 00:34:14;;;;;;;1.27;0.98;;;29.60;45.80;;;;;;5055176;28;20032;-60
2021/06/17 00:36:40;;;;;;;2.13;1.45;;;29.60;45.90;;;;;;5059217;28;20032;-61
2021/06/17 00:39:08;;;;;;;2.20;1.20;;;29.60;45.90;;;;;;5047257;28;20487;-61
2021/06/17 00:41:35;;;;;;;1.88;1.13;;;29.60;45.90;;;;;;5049212;28;20033;-60
2021/06/17 00:44:01;;;;;;;1.52;1.10;;;29.50;45.90;;;;;;5061012;28;20143;-62
2021/06/17 00:46:26;;;;;;;1.70;1.20;;;29.50;45.90;;;;;;5049586;28;20600;-62
2021/06/17 00:48:52;;;;;;;1.38;1.00;;;29.50;45.90;;;;;;5065037;28;20035;-62
2021/06/17 00:51:18;;;;;;;1.27;1.10;;;29.50;46.00;;;;;;5065367;28;20097;-61
2021/06/17 00:53:44;;;;;;;2.17;1.10;;;29.50;46.00;;;;;;5057502;28;20036;-62
2021/06/17 00:56:09;;;;;;;1.15;1.00;;;29.40;46.00;;;;;;5067749;28;20032;-61
2021/06/17 00:58:35;;;;;;;1.13;1.00;;;29.40;46.00;;;;;;5066894;28;20024;-62
2021/06/17 01:01:01;;;;;;;1.90;1.13;;;29.40;46.00;;;;;;5055484;28;20033;-61
2021/06/17 01:03:27;;;;;;;1.75;1.00;;;29.40;46.00;;;;;;5045098;28;20498;-61
2021/06/17 01:05:53;;;;;;;1.73;1.20;;;29.30;46.00;;;;;;5051746;28;20028;-60
2021/06/17 01:08:22;;;;;;;2.33;1.20;;;29.30;46.00;;;;;;5066920;28;20077;-61
2021/06/17 01:11:25;;;;;;;1.40;1.10;;;29.30;46.00;;;;;;5058960;28;20582;-61
2021/06/17 01:14:03;;;;;;;1.15;0.90;;;29.30;46.00;;;;;;5052247;28;20490;-62
2021/06/17 01:16:43;;;;;;;1.65;1.10;;;29.30;46.00;;;;;;5049769;28;20058;-60
2021/06/17 01:19:31;;;;;;;1.52;1.13;;;29.30;46.10;;;;;;5065322;28;20039;-60
2021/06/17 01:22:15;;;;;;;1.93;1.23;;;29.20;46.00;;;;;;5061423;28;20115;-61
2021/06/17 01:25:08;;;;;;;1.50;1.10;;;29.20;46.00;;;;;;5053665;28;20037;-61
2021/06/17 01:27:57;;;;;;;1.65;1.02;;;29.20;46.10;;;;;;5048005;28;20336;-60
2021/06/17 01:30:25;;;;;;;1.65;1.10;;;29.20;46.10;;;;;;5044373;28;20275;-60
2021/06/17 01:32:55;;;;;;;1.65;1.00;;;29.10;46.10;;;;;;5048326;28;20040;-61
2021/06/17 01:35:23;;;;;;;2.05;1.10;;;29.10;46.00;;;;;;5064056;28;20041;-61
2021/06/17 01:37:53;;;;;;;1.80;1.23;;;29.10;46.00;;;;;;5067468;28;20017;-60
2021/06/17 01:40:19;;;;;;;1.52;1.17;;;29.10;46.10;;;;;;5065845;28;20428;-61
2021/06/17 01:42:46;;;;;;;1.27;1.00;;;29.10;46.10;;;;;;5061690;28;20028;-61
2021/06/17 01:45:12;;;;;;;1.30;1.00;;;29.10;46.10;;;;;;5049416;28;20490;-60
2021/06/17 01:47:40;;;;;;;1.35;0.90;;;29.00;46.10;;;;;;5059277;28;20082;-62
2021/06/17 01:50:10;;;;;;;1.75;1.10;;;29.00;46.10;;;;;;5045428;28;20037;-61
2021/06/17 01:52:37;;;;;;;1.52;1.02;;;29.00;46.10;;;;;;5050964;28;20103;-60
2021/06/17 01:55:05;;;;;;;1.70;1.20;;;29.00;46.10;;;;;;5060574;28;20379;-61
2021/06/17 01:57:34;;;;;;;1.45;1.00;;;29.00;46.10;;;;;;5060527;28;20036;-61
2021/06/17 02:00:00;;;;;;;1.35;1.00;;;28.90;46.10;;;;;;5054064;28;20033;-60
2021/06/17 02:02:28;;;;;;;1.48;1.05;;;29.00;46.20;;;;;;5058849;28;20212;-63
2021/06/17 02:04:55;;;;;;;1.70;1.08;;;28.90;46.10;;;;;;5068053;28;20450;-60
2021/06/17 02:07:24;;;;;;;1.20;1.00;;;28.90;46.20;;;;;;5067119;28;20025;-61
2021/06/17 02:09:51;;;;;;;;;;;28.90;46.20;;;;;;5066640;28;20021;-61
2021/06/17 02:12:17;;;;;;;1.00;0.88;;;28.90;46.20;;;;;;5052855;28;19908;-61
2021/06/17 02:14:44;;;;;;;1.35;0.90;;;28.90;46.20;;;;;;5050603;28;20110;-62
2021/06/17 02:17:12;;;;;;;2.10;1.15;;;28.90;46.20;;;;;;5057737;28;20028;-61
2021/06/17 02:19:37;;;;;;;1.50;1.17;;;28.90;46.20;;;;;;5052279;28;20869;-61
2021/06/17 02:22:05;;;;;;;1.20;1.00;;;28.80;46.20;;;;;;5065212;28;20056;-61
2021/06/17 02:24:36;;;;;;;1.38;1.00;;;28.80;46.20;;;;;;5055663;28;20033;-60
2021/06/17 02:27:10;;;;;;;1.20;0.98;;;28.80;46.20;;;;;;5062063;28;20029;-61
2021/06/17 02:29:48;;;;;;;1.25;1.00;;;28.80;46.20;;;;;;5067512;28;20478;-61
2021/06/17 02:32:18;;;;;;;1.35;0.90;;;28.80;46.20;;;;;;5065469;28;20044;-60
2021/06/17 02:34:48;;;;;;;1.20;1.08;;;28.80;46.30;;;;;;5051594;28;20766;-61
2021/06/17 02:37:16;;;;;;;1.48;0.90;;;28.80;46.20;;;;;;5065933;28;20324;-61
2021/06/17 02:39:43;;;;;;;1.42;0.90;;;28.80;46.20;;;;;;5068071;28;20040;-61
2021/06/17 02:42:12;;;;;;;1.55;1.00;;;28.70;46.20;;;;;;5069517;28;20029;-61
2021/06/17 02:44:41;;;;;;;1.63;1.00;;;28.70;46.20;;;;;;5068519;28;20113;-61
2021/06/17 02:47:07;;;;;;;1.35;0.90;;;28.70;46.20;;;;;;5065887;28;20445;-61
2021/06/17 02:49:32;;;;;;;1.60;0.95;;;28.70;46.20;;;;;;5060268;28;20060;-61
2021/06/17 02:51:58;;;;;;;1.17;0.98;;;28.70;46.20;;;;;;5055453;28;20033;-61
2021/06/17 02:54:24;;;;;;;1.42;1.00;;;28.60;46.20;;;;;;5051079;28;20032;-61
2021/06/17 02:57:21;;;;;;;1.40;1.00;;;28.60;46.20;;;;;;5062578;28;20036;-60
2021/06/17 02:59:53;;;;;;;1.20;1.00;;;28.60;46.20;;;;;;5069143;28;20036;-61
2021/06/17 03:02:23;;;;;;;1.45;1.00;;;28.60;46.20;;;;;;5067545;28;20156;-61
2021/06/17 03:04:53;;;;;;;1.60;1.05;;;28.60;46.20;;;;;;5068507;28;20078;-61
2021/06/17 03:07:25;;;;;;;1.30;1.00;;;28.60;46.20;;;;;;5069381;28;20063;-60
2021/06/17 03:09:56;;;;;;;1.20;1.00;;;28.50;46.20;;;;;;5058754;28;20704;-62
2021/06/17 03:12:26;;;;;;;1.48;1.08;;;28.50;46.20;;;;;;5065090;28;20558;-61
2021/06/17 03:14:55;;;;;;;1.85;1.05;;;28.50;46.20;;;;;;5059857;28;20082;-61
2021/06/17 03:17:21;;;;;;;;;;;28.50;46.20;;;;;;5051668;28;20067;-62
2021/06/17 03:19:51;;;;;;;1.10;0.98;;;28.50;46.30;;;;;;5047972;28;20244;-62
2021/06/17 03:22:18;;;;;;;1.40;1.00;;;28.50;46.20;;;;;;5048686;28;20044;-62
2021/06/17 03:24:48;;;;;;;1.20;1.10;;;28.50;46.20;;;;;;5048575;28;20044;-61
2021/06/17 03:27:15;;;;;;;1.17;1.02;;;28.50;46.20;;;;;;5057950;28;20036;-59
2021/06/17 03:29:46;;;;;;;1.42;1.10;;;28.50;46.30;;;;;;5054220;28;20111;-62
2021/06/17 03:32:13;;;;;;;1.35;0.90;;;28.40;46.80;;;;;;5055308;28;20722;-61
2021/06/17 03:34:42;;;;;;;1.90;1.38;;;28.50;46.30;;;;;;5059522;28;20060;-61
2021/06/17 03:37:08;;;;;;;;;;;28.40;45.10;;;;;;5059582;28;20356;-61
2021/06/17 03:39:35;;;;;;;2.60;1.55;;;28.30;44.10;;;;;;5057802;28;19965;-61
2021/06/17 03:42:02;;;;;;;2.30;1.75;;;28.30;43.30;;;;;;5048923;28;20033;-61
2021/06/17 03:44:28;;;;;;;2.95;1.92;;;28.20;42.20;;;;;;5051008;28;20424;-59
2021/06/17 03:46:56;;;;;;;2.92;1.88;;;28.10;41.80;;;;;;5054587;28;20072;-60
2021/06/17 03:49:23;;;;;;;2.80;2.05;;;28.00;41.40;;;;;;5063563;28;20032;-60
2021/06/17 03:51:50;;;;;;;2.80;2.20;;;28.00;41.30;;;;;;5066725;28;20025;-61
2021/06/17 03:54:24;;;;;;;3.03;2.05;;;27.90;40.80;;;;;;5052215;28;20033;-61
2021/06/17 03:56:53;;;;;;;2.70;1.80;;;27.80;41.70;;;;;;5063018;28;20043;-60
2021/06/17 03:59:25;;;;;;;3.47;2.08;;;27.70;41.30;;;;;;5053329;28;20060;-60
2021/06/17 04:01:51;;;;;;;2.72;1.90;;;27.70;41.20;;;;;;5060310;28;20121;-60
2021/06/17 04:04:17;;;;;;;3.72;2.00;;;27.60;41.10;;;;;;5064946;28;20050;-60
2021/06/17 04:06:48;;;;;;;2.88;2.15;;;27.60;40.90;;;;;;5050899;28;20029;-61
2021/06/17 04:09:14;;;;;;;2.90;2.10;;;27.60;40.70;;;;;;5055114;28;20032;-60
2021/06/17 04:11:41;;;;;;;3.00;2.10;;;27.60;40.70;;;;;;5052927;28;20534;-61
2021/06/17 04:14:08;;;;;;;2.97;2.08;;;27.50;40.60;;;;;;5056235;28;20104;-61
2021/06/17 04:16:35;;;;;;;3.17;2.17;;;27.50;40.80;;;;;;5059515;28;20035;-61
2021/06/17 04:19:01;;;;;;;2.80;2.10;;;27.40;41.10;;;;;;5055636;28;20037;-60
2021/06/17 04:21:28;;;;;;;3.45;2.08;;;27.40;41.50;;;;;;5056884;28;20029;-61
2021/06/17 04:23:56;;;;;;;3.40;2.00;;;27.40;41.60;;;;;;5052313;28;20032;-61
2021/06/17 04:26:24;;;;;;;3.25;2.15;;;27.30;41.50;;;;;;5047940;28;20028;-60
2021/06/17 04:28:53;;;;;;;3.13;2.33;;;27.30;41.40;;;;;;5054692;28;20036;-61
2021/06/17 04:31:19;;;;;;;3.88;2.53;;;27.20;41.30;;;;;;5056703;28;20040;-62
2021/06/17 04:33:47;;;;;;;3.50;2.20;;;27.10;41.40;;;;;;5052838;28;20043;-63
2021/06/17 04:36:12;;;;;;;4.25;2.25;;;27.10;41.50;;;;;;5063735;28;20454;-61
2021/06/17 04:38:38;;;;;;;3.55;2.20;;;27.10;41.50;;;;;;5051886;28;20177;-61
2021/06/17 04:41:07;;;;;;;6.63;2.35;;;27.00;42.00;;;;;;5056809;28;20501;-62
2021/06/17 04:43:34;;;;;;;3.92;2.10;;;27.00;41.70;;;;;;5050871;28;20059;-62
2021/06/17 04:46:00;;;;;;;3.53;2.10;;;26.90;41.90;;;;;;5050909;28;20060;-62
2021/06/17 04:48:27;;;;;;;8.32;2.20;;;26.90;42.10;;;;;;5069637;28;20456;-62
2021/06/17 04:50:54;;;;;;;5.30;2.20;;;26.90;42.10;;;;;;5054355;28;20040;-61
2021/06/17 04:53:20;;;;;;;7.55;2.50;;;26.90;42.20;;;;;;5046444;28;20036;-62
2021/06/17 04:55:49;;;;;;;4.07;2.10;;;26.90;42.30;;;;;;5051519;28;20032;-62
2021/06/17 04:58:15;;;;;;;;;;;26.80;42.10;;;;;;5051144;28;20345;-61
2021/06/17 05:00:41;;;;;;;6.40;2.35;;;26.70;42.50;;;;;;5047663;28;19916;-62
2021/06/17 05:03:07;;;;;;;6.35;2.30;;;26.70;42.60;;;;;;5055926;28;20028;-62
2021/06/17 05:05:33;;;;;;;4.38;2.30;;;26.70;42.80;;;;;;5046423;28;20029;-62
2021/06/17 05:10:49;;;;;;;3.67;2.47;;;26.70;43.00;;;;;;5055068;28;20081;-60
2021/06/17 05:13:26;;;;;;;3.72;2.40;;;26.60;42.90;;;;;;5051432;28;20025;-61
2021/06/17 05:15:53;;;;;;;3.72;2.17;;;26.60;42.90;;;;;;5058640;28;20100;-60
2021/06/17 05:18:19;;;;;;;3.72;2.13;;;26.60;43.20;;;;;;5079950;28;20039;-60
2021/06/17 05:20:45;;;;;;;4.72;2.22;;;26.60;43.50;;;;;;5054878;28;20419;-61
2021/06/17 05:23:18;;;;;;;3.15;2.28;;;26.60;43.80;;;;;;5055759;28;20040;-62
2021/06/17 05:25:45;;;;;;;4.40;2.40;;;26.60;44.60;;;;;;5064715;28;20032;-61
2021/06/17 05:28:15;;;;;;;5.13;2.35;;;26.50;44.00;;;;;;5066979;28;20360;-62
2021/06/17 05:30:45;;;;;;;3.83;2.42;;;26.50;44.20;;;;;;5050969;28;20037;-60
2021/06/17 05:33:10;;;;;;;3.75;2.30;;;26.50;44.40;;;;;;5056069;28;20028;-61
2021/06/17 05:35:37;;;;;;;3.72;2.30;;;26.50;44.50;;;;;;5058988;28;20187;-62
2021/06/17 05:38:03;;;;;;;3.03;2.17;;;26.40;44.60;;;;;;5071219;28;20068;-61
2021/06/17 05:40:29;;;;;;;3.95;2.35;;;26.40;44.80;;;;;;5064490;28;20044;-61
2021/06/17 05:42:55;;;;;;;3.00;2.20;;;26.40;44.70;;;;;;5059618;28;20328;-61
2021/06/17 05:45:21;;;;;;;4.43;2.55;;;26.40;44.60;;;;;;5062665;28;20024;-62
2021/06/17 05:47:46;;;;;;;4.47;2.30;;;26.40;44.60;;;;;;5073660;28;20082;-61
2021/06/17 05:50:12;;;;;;;4.13;2.40;;;26.40;44.90;;;;;;5051409;28;20106;-61
2021/06/17 05:52:38;;;;;;;3.30;1.90;;;26.40;45.20;;;;;;5056547;28;20100;-60
2021/06/17 05:55:04;;;;;;;2.65;1.80;;;26.40;45.30;;;;;;5068008;28;20493;-59
2021/06/17 05:57:30;;;;;;;2.70;1.95;;;26.50;45.50;;;;;;5068207;28;20124;-61
2021/06/17 05:59:56;;;;;;;2.95;1.80;;;26.50;45.50;;;;;;5071018;28;20122;-59
2021/06/17 06:02:23;;;;;;;3.47;1.98;;;26.60;45.50;;;;;;5058422;28;20035;-60
2021/06/17 06:04:53;;;;;;;4.07;2.10;;;26.60;45.50;;;;;;5068170;28;20024;-59
2021/06/17 06:07:19;;;;;;;2.50;1.80;;;26.60;45.50;;;;;;5064155;28;20017;-59
2021/06/17 06:09:45;;;;;;;2.72;1.83;;;26.70;45.50;;;;;;5069843;28;20043;-61
2021/06/17 06:12:12;;;;;;;3.15;1.88;;;26.80;45.50;;;;;;5070256;28;20024;-59
2021/06/17 06:14:38;;;;;;;2.65;1.98;;;26.80;45.40;;;;;;5059030;28;20048;-60
2021/06/17 06:17:04;;;;;;;3.70;1.80;;;26.90;45.90;;;;;;5070505;28;20101;-61
2021/06/17 06:19:31;;;;;;;3.40;1.80;;;26.90;45.20;;;;;;5079474;28;20028;-60
2021/06/17 06:21:57;;;;;;;2.85;2.10;;;26.90;45.20;;;;;;5068907;28;20036;-60
2021/06/17 06:24:23;;;;;;;2.47;1.73;;;27.00;45.30;;;;;;5053131;28;20316;-59
2021/06/17 06:26:49;;;;;;;2.60;1.90;;;27.00;45.10;;;;;;5071139;28;20032;-60
2021/06/17 06:29:14;;;;;;;3.15;1.85;;;27.10;45.00;;;;;;5069155;28;20051;-60
2021/06/17 06:31:41;;;;;;;3.33;1.75;;;27.10;44.90;;;;;;5061614;28;20033;-60
2021/06/17 06:34:07;;;;;;;2.70;1.83;;;27.20;45.40;;;;;;5065557;28;20086;-61
2021/06/17 06:36:32;;;;;;;3.13;2.00;;;27.20;44.80;;;;;;5068473;28;20029;-60
2021/06/17 06:38:58;;;;;;;2.80;1.77;;;27.20;44.80;;;;;;5051057;28;20036;-60
2021/06/17 06:41:24;;;;;;;2.60;1.65;;;27.30;44.70;;;;;;5064443;28;20021;-60
2021/06/17 06:43:49;;;;;;;2.55;1.73;;;27.30;44.60;;;;;;5070513;28;20141;-61
2021/06/17 06:46:16;;;;;;;2.80;1.90;;;27.40;44.60;;;;;;5072302;28;20017;-58
2021/06/17 06:48:41;;;;;;;2.10;1.60;;;27.40;44.50;;;;;;5061215;28;20025;-60
2021/06/17 06:51:07;;;;;;;2.95;1.67;;;27.50;44.50;;;;;;5052197;28;20043;-60
2021/06/17 06:53:32;;;;;;;2.97;1.65;;;27.50;44.60;;;;;;5052448;28;20024;-60
2021/06/17 06:55:58;;;;;;;2.40;1.65;;;27.50;44.40;;;;;;5062449;28;20040;-59
2021/06/17 06:58:24;;;;;;;2.50;1.63;;;27.60;44.50;;;;;;5062381;28;20029;-61
2021/06/17 07:00:50;;;;;;;2.03;1.42;;;27.60;44.80;;;;;;5054497;28;20045;-61
2021/06/17 07:03:15;;;;;;;2.20;1.67;;;27.60;44.40;;;;;;5055262;28;20032;-57
2021/06/17 07:05:41;;;;;;;2.53;1.60;;;27.70;44.40;;;;;;5053566;28;20032;-59
2021/06/17 07:08:10;;;;;;;2.53;1.70;;;27.70;44.30;;;;;;5063487;28;20043;-62
2021/06/17 07:10:38;;;;;;;2.38;1.60;;;27.70;44.30;;;;;;5070134;28;20016;-59
2021/06/17 07:13:04;;;;;;;2.67;1.73;;;27.70;44.30;;;;;;5066213;28;20112;-60
2021/06/17 07:15:30;;;;;;;3.25;1.60;;;27.70;44.40;;;;;;5064243;28;20032;-61
2021/06/17 07:17:55;;;;;;;2.50;1.60;;;27.80;44.40;;;;;;5056713;28;20029;-59
2021/06/17 07:20:21;;;;;;;2.30;1.80;;;27.80;44.40;;;;;;5048790;28;20726;-60
2021/06/17 07:22:47;;;;;;;2.50;1.70;;;27.90;44.40;;;;;;5064511;28;20020;-60
2021/06/17 07:25:13;;;;;;;2.30;1.65;;;27.90;44.40;;;;;;5076902;28;20028;-60
2021/06/17 07:27:38;;;;;;;2.35;1.65;;;27.90;44.30;;;;;;5070045;28;20028;-60
2021/06/17 07:30:05;;;;;;;2.30;1.70;;;27.90;44.20;;;;;;5067436;28;20118;-60
2021/06/17 07:32:31;;;;;;;2.25;1.75;;;28.00;44.40;;;;;;5059877;28;20027;-61
2021/06/17 07:34:57;;;;;;;2.03;1.55;;;28.00;44.40;;;;;;5062007;28;20515;-60
2021/06/17 07:37:22;;;;;;;2.65;1.67;;;28.00;44.30;;;;;;5067785;28;20029;-59
2021/06/17 07:39:48;;;;;;;2.65;1.67;;;28.00;44.30;;;;;;5058484;28;20080;-61
2021/06/17 07:42:14;;;;;;;3.40;1.80;;;28.10;44.40;;;;;;5060944;28;20028;-60
2021/06/17 07:44:40;;;;;;;2.22;1.60;;;28.10;44.40;;;;;;5065750;28;20506;-59
2021/06/17 07:47:06;;;;;;;2.40;1.73;;;28.10;44.40;;;;;;5052877;28;20029;-59
2021/06/17 07:49:33;;;;;;;2.90;1.70;;;28.10;44.60;;;;;;5068251;28;20043;-59
2021/06/17 07:51:59;;;;;;;2.22;1.58;;;28.10;44.60;;;;;;5061221;28;20082;-60
2021/06/17 07:54:25;;;;;;;2.63;1.70;;;28.20;44.50;;;;;;5056852;28;20094;-59
2021/06/17 07:56:50;;;;;;;1.95;1.45;;;28.20;44.50;;;;;;5054952;28;20041;-60
2021/06/17 07:59:18;;;;;;;1.92;1.42;;;28.20;44.40;;;;;;5064112;28;20032;-59
2021/06/17 08:01:45;;;;;;;1.58;1.35;;;28.20;44.40;;;;;;5062851;28;20064;-59
2021/06/17 08:04:10;;;;;;;2.60;1.63;;;28.20;44.50;;;;;;5067324;28;20411;-59
2021/06/17 08:06:36;;;;;;;2.20;1.50;;;28.30;44.40;;;;;;5066677;28;20140;-61
2021/06/17 08:09:03;;;;;;;2.13;1.60;;;28.30;44.30;;;;;;5066704;28;20119;-60
2021/06/17 08:11:29;;;;;;;2.42;1.70;;;28.30;44.40;;;;;;5062594;28;20468;-60
2021/06/17 08:13:55;;;;;;;2.30;1.55;;;28.30;44.30;;;;;;5047609;28;20035;-59
2021/06/17 08:16:20;;;;;;;2.10;1.58;;;28.40;44.30;;;;;;5056119;28;20036;-59
2021/06/17 08:18:46;;;;;;;2.50;1.50;;;28.40;44.40;;;;;;5069736;28;20097;-60
2021/06/17 08:21:12;;;;;;;2.15;1.65;;;28.40;44.80;;;;;;5067187;28;20089;-60
2021/06/17 08:23:38;;;;;;;2.85;1.70;;;28.40;44.50;;;;;;5064353;28;20032;-61
2021/06/17 08:26:03;;;;;;;1.90;1.50;;;28.40;44.40;;;;;;5066163;28;20060;-59
2021/06/17 08:28:30;;;;;;;2.22;1.60;;;28.40;44.40;;;;;;5057493;28;20098;-61
2021/06/17 08:30:56;;;;;;;2.10;1.50;;;28.40;44.40;;;;;;5047082;28;20452;-59
2021/06/17 08:33:22;;;;;;;2.58;1.63;;;28.50;44.50;;;;;;5051996;28;20479;-59
2021/06/17 08:35:52;;;;;;;2.00;1.42;;;28.50;44.50;;;;;;5067449;28;20155;-60
2021/06/17 08:38:20;;;;;;;2.17;1.50;;;28.50;44.50;;;;;;5067141;28;20089;-59
2021/06/17 08:40:46;;;;;;;2.25;1.50;;;28.50;44.50;;;;;;5066476;28;20024;-61
2021/06/17 08:43:12;;;;;;;2.65;1.55;;;28.50;44.50;;;;;;5066574;28;20040;-60
2021/06/17 08:45:38;;;;;;;1.90;1.52;;;28.50;44.50;;;;;;5065699;28;20043;-60
2021/06/17 08:48:04;;;;;;;2.08;1.45;;;28.50;44.40;;;;;;5067702;28;20066;-58
2021/06/17 08:50:29;;;;;;;2.92;1.65;;;28.50;44.40;;;;;;5049413;28;20048;-58
2021/06/17 08:52:56;;;;;;;1.70;1.30;;;28.60;44.40;;;;;;5047171;28;20079;-59
2021/06/17 08:55:28;;;;;;;2.20;1.42;;;28.60;44.50;;;;;;5056060;28;20024;-59
2021/06/17 08:57:55;;;;;;;1.95;1.50;;;28.60;44.60;;;;;;5059252;28;20052;-60
2021/06/17 09:00:21;;;;;;;2.17;1.50;;;28.60;44.60;;;;;;5045725;28;20033;-59
2021/06/17 09:02:58;;;;;;;2.95;1.63;;;28.60;44.50;;;;;;5047376;28;20470;-62
2021/06/17 09:05:25;;;;;;;3.17;1.50;;;28.70;44.60;;;;;;5047537;28;20037;-58
2021/06/17 09:07:52;;;;;;;1.88;1.50;;;28.70;44.70;;;;;;5058214;28;20458;-59
2021/06/17 09:10:18;;;;;;;2.03;1.40;;;28.70;44.50;;;;;;5064129;28;20025;-59
2021/06/17 09:12:46;;;;;;;1.55;1.30;;;28.70;44.50;;;;;;5066746;28;20036;-58
2021/06/17 09:15:12;;;;;;;1.67;1.40;;;28.70;44.40;;;;;;5053304;28;20132;-59
2021/06/17 09:17:39;;;;;;;1.83;1.40;;;28.70;45.00;;;;;;5060011;28;20032;-58
2021/06/17 09:20:05;;;;;;;2.05;1.45;;;28.80;44.50;;;;;;5064616;28;20655;-58
2021/06/17 09:22:31;;;;;;;1.67;1.27;;;28.80;44.60;;;;;;5048802;28;20383;-59
2021/06/17 09:24:58;;;;;;;2.00;1.50;;;28.80;44.40;;;;;;5047267;28;20033;-60
2021/06/17 09:27:39;;;;;;;1.90;1.40;;;28.80;45.00;;;;;;5058162;28;20372;-58
2021/06/17 09:30:10;;;;;;;2.00;1.40;;;28.80;44.50;;;;;;5063451;28;20062;-59
2021/06/17 09:32:45;;;;;;;1.92;1.40;;;28.80;44.40;;;;;;5054951;28;20476;-60
2021/06/17 09:35:47;;;;;;;1.92;1.40;;;28.90;44.40;;;;;;5046711;28;20120;-58
2021/06/17 09:38:13;;;;;;;1.90;1.30;;;28.90;44.40;;;;;;5037901;28;20044;-59
2021/06/17 09:40:45;;;;;;;2.15;1.50;;;28.90;44.50;;;;;;5058068;28;20032;-61
2021/06/17 09:43:23;;;;;;;1.70;1.30;;;28.90;44.40;;;;;;5045743;28;20029;-59
2021/06/17 09:46:11;;;;;;;1.90;1.55;;;28.90;44.40;;;;;;5059335;28;20132;-60
2021/06/17 09:48:42;;;;;;;1.70;1.30;;;28.90;44.40;;;;;;5054551;28;20625;-61
2021/06/17 09:51:26;;;;;;;1.88;1.48;;;28.90;44.40;;;;;;5066305;28;20055;-59
2021/06/17 09:54:04;;;;;;;2.17;1.38;;;28.90;44.40;;;;;;5064899;28;20115;-59
2021/06/17 09:56:32;;;;;;;1.90;1.48;;;29.00;44.50;;;;;;5059095;28;20067;-59
2021/06/17 09:58:58;;;;;;;1.88;1.30;;;29.00;44.40;;;;;;5059930;28;20107;-61
2021/06/17 10:01:37;;;;;;;1.80;1.20;;;28.90;44.40;;;;;;5053124;28;20422;-59
2021/06/17 10:04:03;;;;;;;;;;;29.00;44.50;;;;;;5065555;28;20024;-59
2021/06/17 10:06:29;;;;;;;2.00;1.50;;;29.00;44.40;;;;;;5066156;28;20607;-60
2021/06/17 10:08:55;;;;;;;2.13;1.30;;;29.00;44.50;;;;;;5066431;28;20095;-60
2021/06/17 10:11:22;;;;;;;2.22;1.40;;;29.00;44.40;;;;;;5067068;28;20063;-60
2021/06/17 10:13:49;;;;;;;1.50;1.30;;;29.00;44.50;;;;;;5052794;28;20602;-59
2021/06/17 10:16:17;;;;;;;1.55;1.23;;;29.10;45.00;;;;;;5065107;28;20486;-58
2021/06/17 10:18:46;;;;;;;1.67;1.30;;;29.10;44.60;;;;;;5073046;28;20029;-59
2021/06/17 10:21:14;;;;;;;2.10;1.52;;;29.10;44.50;;;;;;5055924;28;20056;-60
2021/06/17 10:23:46;;;;;;;1.60;1.30;;;29.10;44.50;;;;;;5058264;28;20040;-59
2021/06/17 10:26:12;;;;;;;1.90;1.25;;;29.10;44.50;;;;;;5057557;28;20029;-59
2021/06/17 10:28:57;;;;;;;1.70;1.27;;;29.10;44.60;;;;;;5059826;28;20636;-59
2021/06/17 10:31:39;;;;;;;1.90;1.20;;;29.10;44.60;;;;;;5061596;28;20419;-60
2021/06/17 10:34:26;;;;;;;2.38;1.20;;;29.10;44.60;;;;;;5057195;28;20032;-58
2021/06/17 10:37:13;;;;;;;2.08;1.50;;;29.20;44.60;;;;;;5069068;28;20039;-58
2021/06/17 10:39:40;;;;;;;1.90;1.30;;;29.20;44.50;;;;;;5063851;28;20147;-58
2021/06/17 10:42:09;;;;;;;1.83;1.30;;;29.20;44.60;;;;;;5069721;28;20178;-58
2021/06/17 10:44:48;;;;;;;1.73;1.20;;;29.20;44.50;;;;;;5069408;28;20039;-59
2021/06/17 10:47:32;;;;;;;;;;;29.20;44.40;;;;;;5068795;28;20308;-59
2021/06/17 10:49:57;;;;;;;1.45;1.10;;;29.30;44.60;;;;;;5064201;28;20264;-59
2021/06/17 10:52:25;;;;;;;2.78;1.63;;;29.30;44.50;;;;;;5061199;28;20036;-59
2021/06/17 10:55:02;;;;;;;1.85;1.30;;;29.30;44.50;;;;;;5064221;28;20033;-60
2021/06/17 10:57:50;;;;;;;1.60;1.30;;;29.30;44.50;;;;;;5061954;28;20040;-60
2021/06/17 11:00:22;;;;;;;1.90;1.38;;;29.30;44.40;;;;;;5055424;28;20024;-60
2021/06/17 11:03:04;;;;;;;1.48;1.20;;;29.30;44.50;;;;;;5051402;28;20094;-60
2021/06/17 11:05:40;;;;;;;1.73;1.30;;;29.30;44.40;;;;;;5055408;28;20142;-58
2021/06/17 11:08:24;;;;;;;2.28;1.20;;;29.40;44.50;;;;;;5056022;28;20116;-58
2021/06/17 11:11:03;;;;;;;1.75;1.20;;;29.30;44.40;;;;;;5058062;28;20104;-59
2021/06/17 11:13:29;;;;;;;2.15;1.40;;;29.40;44.60;;;;;;5056593;28;20029;-60
2021/06/17 11:15:56;;;;;;;2.13;1.38;;;29.40;44.50;;;;;;5058049;28;20077;-59
2021/06/17 11:18:40;;;;;;;1.33;1.10;;;29.40;44.50;;;;;;5072270;28;20052;-62
2021/06/17 11:21:21;;;;;;;2.05;1.38;;;29.40;44.50;;;;;;5061693;28;20081;-61
2021/06/17 11:23:51;;;;;;;2.13;1.40;;;29.40;44.50;;;;;;5063854;28;20035;-61
2021/06/17 11:26:37;;;;;;;1.80;1.30;;;29.50;44.50;;;;;;5067485;28;20025;-60
2021/06/17 11:29:04;;;;;;;1.27;1.00;;;29.50;44.60;;;;;;5057340;28;20099;-61
2021/06/17 11:31:39;;;;;;;1.42;1.10;;;29.50;44.60;;;;;;5053543;28;20029;-63
2021/06/17 11:34:06;;;;;;;1.38;1.10;;;29.50;44.60;;;;;;5053776;28;20416;-64
2021/06/17 11:36:32;;;;;;;1.42;1.20;;;29.50;44.60;;;;;;5059696;28;20048;-63
2021/06/17 11:39:02;;;;;;;1.67;1.20;;;29.50;44.60;;;;;;5060385;28;20070;-61
2021/06/17 11:41:30;;;;;;;1.50;1.10;;;29.50;44.30;;;;;;5068853;28;20447;-62
2021/06/17 11:44:05;;;;;;;1.50;1.20;;;29.50;44.40;;;;;;5058762;28;20107;-63
2021/06/17 11:46:38;;;;;;;1.80;1.25;;;29.60;44.60;;;;;;5065282;28;20037;-63
2021/06/17 11:49:06;;;;;;;2.10;1.23;;;29.60;44.60;;;;;;5066466;28;20086;-63
2021/06/17 11:51:45;;;;;;;1.15;1.05;;;29.60;44.70;;;;;;5065451;28;20117;-61
2021/06/17 11:54:20;;;;;;;1.80;1.30;;;29.60;44.90;;;;;;5054360;28;20028;-64
2021/06/17 11:56:47;;;;;;;1.92;1.20;;;29.60;44.90;;;;;;5061161;28;20036;-64
2021/06/17 11:59:39;;;;;;;1.67;1.20;;;29.70;45.00;;;;;;5049502;28;20387;-64
2021/06/17 12:02:18;;;;;;;1.88;1.30;;;29.70;45.00;;;;;;5065603;28;20129;-62
2021/06/17 12:05:08;;;;;;;1.27;1.10;;;29.70;44.90;;;;;;5049746;28;20531;-62
2021/06/17 12:07:34;;;;;;;1.48;1.27;;;29.70;45.00;;;;;;5056329;28;20482;-62
2021/06/17 12:10:07;;;;;;;1.20;1.10;;;29.70;45.10;;;;;;5075192;28;20033;-62
2021/06/17 12:12:33;;;;;;;2.03;1.40;;;29.80;45.00;;;;;;5046667;28;20052;-63
2021/06/17 12:14:59;;;;;;;1.60;1.20;;;29.80;45.20;;;;;;5055507;28;20029;-63
2021/06/17 12:17:48;;;;;;;1.60;1.10;;;29.80;45.30;;;;;;5075107;28;20028;-62
2021/06/17 12:20:39;;;;;;;2.00;1.40;;;29.80;45.30;;;;;;5057415;28;20619;-62
2021/06/17 12:23:20;;;;;;;1.50;1.20;;;29.80;45.30;;;;;;5052193;28;20056;-63
2021/06/17 12:26:06;;;;;;;1.10;1.00;;;29.80;45.30;;;;;;5051524;28;20479;-63
2021/06/17 12:28:52;;;;;;;1.40;1.10;;;29.80;45.20;;;;;;5051132;28;20139;-63
2021/06/17 12:31:35;;;;;;;1.25;1.10;;;29.90;45.10;;;;;;5047885;28;20119;-62
2021/06/17 12:34:13;;;;;;;1.23;1.10;;;29.90;45.20;;;;;;5049966;28;21626;-61
2021/06/17 12:36:39;;;;;;;1.50;1.10;;;29.90;45.20;;;;;;5046605;28;20040;-62
2021/06/17 12:39:16;;;;;;;1.45;1.20;;;29.90;45.20;;;;;;5067877;28;20520;-64
2021/06/17 12:41:46;;;;;;;1.85;1.23;;;29.90;45.60;;;;;;5060049;28;20098;-63
2021/06/17 12:44:35;;;;;;;1.30;1.10;;;29.90;45.30;;;;;;5055376;28;20025;-62
2021/06/17 12:47:04;;;;;;;1.73;1.40;;;29.90;45.20;;;;;;5068865;28;20028;-63
2021/06/17 12:52:24;;;;;;;1.98;1.38;;;30.00;45.70;;;;;;5049006;28;20040;-62
2021/06/17 12:54:53;;;;;;;1.83;1.38;;;30.00;45.00;;;;;;5060240;28;20048;-62
2021/06/17 12:57:22;;;;;;;1.80;1.42;;;30.10;44.90;;;;;;5055271;28;20819;-61
2021/06/17 13:00:03;;;;;;;2.20;1.60;;;30.10;44.80;;;;;;5069176;28;20113;-63
2021/06/17 13:02:32;;;;;;;1.52;1.33;;;30.10;44.90;;;;;;5064922;28;20457;-63
2021/06/17 13:05:14;;;;;;;1.77;1.38;;;30.10;44.90;;;;;;5067462;28;20118;-64